sensor_id;sensor_type;location;lat;lon;timestamp;P1;durP1;ratioP1;P2;durP2;ratioP2
3491;SDS011;1760;52.480;13.422;2022-07-23T00:01:45;10.70;;;5.20;;
3491;SDS011;1760;52.480;13.422;2022-07-23T00:04:12;6.17;;;5.30;;
3491;SDS011;1760;52.480;13.422;2022-07-23T00:06:39;8.13;;;4.77;;
3491;SDS011;1760;52.480;13.422;2022-07-23T00:09:06;7.60;;;5.00;;
3491;SDS011;1760;52.480;13.422;2022-07-23T00:11:33;5.67;;;5.00;;
3491;SDS011;1760;52.480;13.422;2022-07-23T00:14:00;14.80;;;5.30;;
3491;SDS011;1760;52.480;13.422;2022-07-23T00:16:27;7.40;;;5.30;;
3491;SDS011;1760;52.480;13.422;2022-07-23T00:18:55;5.60;;;4.60;;
3491;SDS011;1760;52.480;13.422;2022-07-23T00:21:26;7.03;;;4.60;;
3491;SDS011;1760;52.480;13.422;2022-07-23T00:23:53;7.90;;;5.40;;
3491;SDS011;1760;52.480;13.422;2022-07-23T00:26:19;6.93;;;5.57;;
3491;SDS011;1760;52.480;13.422;2022-07-23T00:28:46;6.80;;;4.90;;
3491;SDS011;1760;52.480;13.422;2022-07-23T00:31:13;9.93;;;5.30;;
3491;SDS011;1760;52.480;13.422;2022-07-23T00:33:40;7.60;;;5.47;;
3491;SDS011;1760;52.480;13.422;2022-07-23T00:36:11;5.97;;;5.10;;
3491;SDS011;1760;52.480;13.422;2022-07-23T00:38:38;6.70;;;4.63;;
3491;SDS011;1760;52.480;13.422;2022-07-23T00:41:07;5.93;;;4.73;;
3491;SDS011;1760;52.480;13.422;2022-07-23T00:43:34;10.33;;;5.57;;
3491;SDS011;1760;52.480;13.422;2022-07-23T00:46:01;6.87;;;4.90;;
3491;SDS011;1760;52.480;13.422;2022-07-23T00:48:27;6.37;;;4.73;;
3491;SDS011;1760;52.480;13.422;2022-07-23T00:50:54;5.07;;;4.57;;
3491;SDS011;1760;52.480;13.422;2022-07-23T00:53:22;5.10;;;4.30;;
3491;SDS011;1760;52.480;13.422;2022-07-23T00:55:50;7.77;;;5.40;;
3491;SDS011;1760;52.480;13.422;2022-07-23T00:58:17;11.50;;;5.37;;
3491;SDS011;1760;52.480;13.422;2022-07-23T01:00:44;6.60;;;5.30;;
3491;SDS011;1760;52.480;13.422;2022-07-23T01:03:11;5.60;;;4.90;;
3491;SDS011;1760;52.480;13.422;2022-07-23T01:05:40;8.30;;;5.40;;
3491;SDS011;1760;52.480;13.422;2022-07-23T01:08:16;4.63;;;4.17;;
3491;SDS011;1760;52.480;13.422;2022-07-23T01:10:49;6.53;;;5.83;;
3491;SDS011;1760;52.480;13.422;2022-07-23T01:13:17;10.70;;;4.60;;
3491;SDS011;1760;52.480;13.422;2022-07-23T01:15:44;8.60;;;5.40;;
3491;SDS011;1760;52.480;13.422;2022-07-23T01:18:11;6.03;;;4.73;;
3491;SDS011;1760;52.480;13.422;2022-07-23T01:20:38;11.40;;;5.17;;
3491;SDS011;1760;52.480;13.422;2022-07-23T01:23:06;7.57;;;5.63;;
3491;SDS011;1760;52.480;13.422;2022-07-23T01:25:33;11.07;;;5.07;;
3491;SDS011;1760;52.480;13.422;2022-07-23T01:28:00;5.50;;;4.60;;
3491;SDS011;1760;52.480;13.422;2022-07-23T01:30:29;6.90;;;5.37;;
3491;SDS011;1760;52.480;13.422;2022-07-23T01:32:56;5.50;;;4.90;;
3491;SDS011;1760;52.480;13.422;2022-07-23T01:35:25;5.90;;;4.73;;
3491;SDS011;1760;52.480;13.422;2022-07-23T01:38:00;7.63;;;5.20;;
3491;SDS011;1760;52.480;13.422;2022-07-23T01:40:28;8.50;;;5.43;;
3491;SDS011;1760;52.480;13.422;2022-07-23T01:42:55;9.30;;;5.70;;
3491;SDS011;1760;52.480;13.422;2022-07-23T01:45:22;5.80;;;5.20;;
3491;SDS011;1760;52.480;13.422;2022-07-23T01:47:49;7.93;;;6.17;;
3491;SDS011;1760;52.480;13.422;2022-07-23T01:50:16;7.50;;;5.13;;
3491;SDS011;1760;52.480;13.422;2022-07-23T01:52:43;7.00;;;5.70;;
3491;SDS011;1760;52.480;13.422;2022-07-23T01:55:10;7.00;;;5.27;;
3491;SDS011;1760;52.480;13.422;2022-07-23T01:57:38;6.40;;;5.03;;
3491;SDS011;1760;52.480;13.422;2022-07-23T02:00:05;7.00;;;5.10;;
3491;SDS011;1760;52.480;13.422;2022-07-23T02:02:33;7.43;;;5.90;;
3491;SDS011;1760;52.480;13.422;2022-07-23T02:04:59;7.27;;;4.70;;
3491;SDS011;1760;52.480;13.422;2022-07-23T02:07:39;5.97;;;5.30;;
3491;SDS011;1760;52.480;13.422;2022-07-23T02:10:07;8.27;;;5.70;;
3491;SDS011;1760;52.480;13.422;2022-07-23T02:12:34;11.43;;;6.10;;
3491;SDS011;1760;52.480;13.422;2022-07-23T02:15:03;6.37;;;5.20;;
3491;SDS011;1760;52.480;13.422;2022-07-23T02:17:30;7.33;;;5.27;;
3491;SDS011;1760;52.480;13.422;2022-07-23T02:19:57;9.07;;;5.77;;
3491;SDS011;1760;52.480;13.422;2022-07-23T02:22:24;7.80;;;5.30;;
3491;SDS011;1760;52.480;13.422;2022-07-23T02:24:51;7.20;;;5.57;;
3491;SDS011;1760;52.480;13.422;2022-07-23T02:27:18;9.50;;;5.07;;
3491;SDS011;1760;52.480;13.422;2022-07-23T02:29:44;10.53;;;5.77;;
3491;SDS011;1760;52.480;13.422;2022-07-23T02:32:12;5.40;;;4.90;;
3491;SDS011;1760;52.480;13.422;2022-07-23T02:34:39;8.40;;;5.40;;
3491;SDS011;1760;52.480;13.422;2022-07-23T02:37:06;8.10;;;4.90;;
3491;SDS011;1760;52.480;13.422;2022-07-23T02:42:19;5.87;;;5.37;;
3491;SDS011;1760;52.480;13.422;2022-07-23T02:44:46;7.50;;;5.23;;
3491;SDS011;1760;52.480;13.422;2022-07-23T02:47:16;6.10;;;5.23;;
3491;SDS011;1760;52.480;13.422;2022-07-23T02:49:43;8.10;;;6.60;;
3491;SDS011;1760;52.480;13.422;2022-07-23T02:52:10;10.27;;;4.93;;
3491;SDS011;1760;52.480;13.422;2022-07-23T02:54:37;6.83;;;5.23;;
3491;SDS011;1760;52.480;13.422;2022-07-23T02:57:04;7.00;;;5.03;;
3491;SDS011;1760;52.480;13.422;2022-07-23T02:59:33;11.03;;;5.50;;
3491;SDS011;1760;52.480;13.422;2022-07-23T03:02:00;11.40;;;5.63;;
3491;SDS011;1760;52.480;13.422;2022-07-23T03:04:28;5.70;;;5.20;;
3491;SDS011;1760;52.480;13.422;2022-07-23T03:06:57;7.77;;;5.53;;
3491;SDS011;1760;52.480;13.422;2022-07-23T03:09:23;6.20;;;4.80;;
3491;SDS011;1760;52.480;13.422;2022-07-23T03:11:50;16.13;;;5.40;;
3491;SDS011;1760;52.480;13.422;2022-07-23T03:14:19;6.43;;;4.93;;
3491;SDS011;1760;52.480;13.422;2022-07-23T03:16:45;7.50;;;4.97;;
3491;SDS011;1760;52.480;13.422;2022-07-23T03:19:14;6.70;;;4.37;;
3491;SDS011;1760;52.480;13.422;2022-07-23T03:21:42;6.90;;;4.80;;
3491;SDS011;1760;52.480;13.422;2022-07-23T03:24:09;5.60;;;5.00;;
3491;SDS011;1760;52.480;13.422;2022-07-23T03:26:36;9.10;;;5.10;;
3491;SDS011;1760;52.480;13.422;2022-07-23T03:29:03;10.83;;;5.43;;
3491;SDS011;1760;52.480;13.422;2022-07-23T03:31:30;5.87;;;4.83;;
3491;SDS011;1760;52.480;13.422;2022-07-23T03:33:57;9.30;;;4.80;;
3491;SDS011;1760;52.480;13.422;2022-07-23T03:36:24;9.40;;;5.00;;
3491;SDS011;1760;52.480;13.422;2022-07-23T03:38:53;5.70;;;4.93;;
3491;SDS011;1760;52.480;13.422;2022-07-23T03:41:20;7.50;;;5.60;;
3491;SDS011;1760;52.480;13.422;2022-07-23T03:43:47;7.17;;;4.50;;
3491;SDS011;1760;52.480;13.422;2022-07-23T03:46:13;5.73;;;4.60;;
3491;SDS011;1760;52.480;13.422;2022-07-23T03:48:40;4.80;;;4.30;;
3491;SDS011;1760;52.480;13.422;2022-07-23T03:51:07;6.73;;;4.13;;
3491;SDS011;1760;52.480;13.422;2022-07-23T03:53:34;7.00;;;4.23;;
3491;SDS011;1760;52.480;13.422;2022-07-23T03:56:02;6.13;;;4.70;;
3491;SDS011;1760;52.480;13.422;2022-07-23T03:58:29;5.50;;;4.33;;
3491;SDS011;1760;52.480;13.422;2022-07-23T04:00:56;5.60;;;4.00;;
3491;SDS011;1760;52.480;13.422;2022-07-23T04:03:23;5.53;;;3.90;;
3491;SDS011;1760;52.480;13.422;2022-07-23T04:05:49;8.07;;;3.80;;
3491;SDS011;1760;52.480;13.422;2022-07-23T04:08:18;7.00;;;4.33;;
3491;SDS011;1760;52.480;13.422;2022-07-23T04:10:45;6.73;;;3.87;;
3491;SDS011;1760;52.480;13.422;2022-07-23T04:13:13;4.97;;;3.50;;
3491;SDS011;1760;52.480;13.422;2022-07-23T04:15:40;5.00;;;3.20;;
3491;SDS011;1760;52.480;13.422;2022-07-23T04:18:10;6.93;;;3.27;;
3491;SDS011;1760;52.480;13.422;2022-07-23T04:20:36;5.60;;;3.93;;
3491;SDS011;1760;52.480;13.422;2022-07-23T04:23:03;4.47;;;3.00;;
3491;SDS011;1760;52.480;13.422;2022-07-23T04:25:30;5.23;;;2.60;;
3491;SDS011;1760;52.480;13.422;2022-07-23T04:27:57;4.67;;;3.00;;
3491;SDS011;1760;52.480;13.422;2022-07-23T04:30:25;6.17;;;3.10;;
3491;SDS011;1760;52.480;13.422;2022-07-23T04:32:52;7.40;;;3.23;;
3491;SDS011;1760;52.480;13.422;2022-07-23T04:35:18;8.03;;;3.23;;
3491;SDS011;1760;52.480;13.422;2022-07-23T04:37:45;9.83;;;3.50;;
3491;SDS011;1760;52.480;13.422;2022-07-23T04:40:14;4.13;;;3.70;;
3491;SDS011;1760;52.480;13.422;2022-07-23T04:42:41;8.03;;;3.60;;
3491;SDS011;1760;52.480;13.422;2022-07-23T04:45:08;6.67;;;4.07;;
3491;SDS011;1760;52.480;13.422;2022-07-23T04:47:36;8.40;;;3.57;;
3491;SDS011;1760;52.480;13.422;2022-07-23T04:50:03;10.30;;;3.80;;
3491;SDS011;1760;52.480;13.422;2022-07-23T04:52:30;10.97;;;2.77;;
3491;SDS011;1760;52.480;13.422;2022-07-23T04:54:57;4.77;;;3.10;;
3491;SDS011;1760;52.480;13.422;2022-07-23T04:57:24;7.03;;;3.83;;
3491;SDS011;1760;52.480;13.422;2022-07-23T04:59:51;5.30;;;2.83;;
3491;SDS011;1760;52.480;13.422;2022-07-23T05:02:18;5.37;;;3.23;;
3491;SDS011;1760;52.480;13.422;2022-07-23T05:04:46;7.40;;;2.87;;
3491;SDS011;1760;52.480;13.422;2022-07-23T05:07:15;4.03;;;3.20;;
3491;SDS011;1760;52.480;13.422;2022-07-23T05:09:41;6.30;;;3.17;;
3491;SDS011;1760;52.480;13.422;2022-07-23T05:12:08;5.43;;;3.77;;
3491;SDS011;1760;52.480;13.422;2022-07-23T05:14:35;5.47;;;3.07;;
3491;SDS011;1760;52.480;13.422;2022-07-23T05:17:12;5.43;;;3.27;;
3491;SDS011;1760;52.480;13.422;2022-07-23T05:19:38;5.80;;;3.23;;
3491;SDS011;1760;52.480;13.422;2022-07-23T05:22:06;5.07;;;3.60;;
3491;SDS011;1760;52.480;13.422;2022-07-23T05:24:33;5.23;;;3.23;;
3491;SDS011;1760;52.480;13.422;2022-07-23T05:27:00;6.07;;;3.23;;
3491;SDS011;1760;52.480;13.422;2022-07-23T05:29:27;10.30;;;4.40;;
3491;SDS011;1760;52.480;13.422;2022-07-23T05:31:54;3.20;;;2.60;;
3491;SDS011;1760;52.480;13.422;2022-07-23T05:34:20;3.93;;;3.20;;
3491;SDS011;1760;52.480;13.422;2022-07-23T05:36:47;6.67;;;3.97;;
3491;SDS011;1760;52.480;13.422;2022-07-23T05:39:16;6.97;;;3.80;;
3491;SDS011;1760;52.480;13.422;2022-07-23T05:41:42;9.43;;;3.60;;
3491;SDS011;1760;52.480;13.422;2022-07-23T05:44:09;5.20;;;4.47;;
3491;SDS011;1760;52.480;13.422;2022-07-23T05:46:36;6.10;;;3.50;;
3491;SDS011;1760;52.480;13.422;2022-07-23T05:49:03;7.57;;;3.37;;
3491;SDS011;1760;52.480;13.422;2022-07-23T05:51:30;11.37;;;3.47;;
3491;SDS011;1760;52.480;13.422;2022-07-23T05:53:57;5.43;;;3.30;;
3491;SDS011;1760;52.480;13.422;2022-07-23T05:56:25;8.43;;;3.70;;
3491;SDS011;1760;52.480;13.422;2022-07-23T05:58:52;6.30;;;3.20;;
3491;SDS011;1760;52.480;13.422;2022-07-23T06:01:21;4.13;;;3.33;;
3491;SDS011;1760;52.480;13.422;2022-07-23T06:03:48;7.93;;;3.30;;
3491;SDS011;1760;52.480;13.422;2022-07-23T06:06:15;7.10;;;4.37;;
3491;SDS011;1760;52.480;13.422;2022-07-23T06:08:42;5.30;;;3.27;;
3491;SDS011;1760;52.480;13.422;2022-07-23T06:11:08;9.50;;;3.97;;
3491;SDS011;1760;52.480;13.422;2022-07-23T06:13:37;10.37;;;3.50;;
3491;SDS011;1760;52.480;13.422;2022-07-23T06:16:04;4.13;;;3.73;;
3491;SDS011;1760;52.480;13.422;2022-07-23T06:18:31;6.73;;;3.97;;
3491;SDS011;1760;52.480;13.422;2022-07-23T06:20:57;5.27;;;3.90;;
3491;SDS011;1760;52.480;13.422;2022-07-23T06:23:24;4.50;;;4.10;;
3491;SDS011;1760;52.480;13.422;2022-07-23T06:25:51;4.97;;;3.50;;
3491;SDS011;1760;52.480;13.422;2022-07-23T06:28:18;7.60;;;4.40;;
3491;SDS011;1760;52.480;13.422;2022-07-23T06:30:46;4.70;;;4.20;;
3491;SDS011;1760;52.480;13.422;2022-07-23T06:33:13;8.40;;;4.27;;
3491;SDS011;1760;52.480;13.422;2022-07-23T06:35:42;5.87;;;5.27;;
3491;SDS011;1760;52.480;13.422;2022-07-23T06:38:08;7.37;;;4.17;;
3491;SDS011;1760;52.480;13.422;2022-07-23T06:40:35;5.90;;;3.90;;
3491;SDS011;1760;52.480;13.422;2022-07-23T06:43:02;8.33;;;4.00;;
3491;SDS011;1760;52.480;13.422;2022-07-23T06:45:29;9.27;;;4.47;;
3491;SDS011;1760;52.480;13.422;2022-07-23T06:47:57;7.23;;;3.60;;
3491;SDS011;1760;52.480;13.422;2022-07-23T06:50:24;6.20;;;4.17;;
3491;SDS011;1760;52.480;13.422;2022-07-23T06:52:51;6.50;;;3.40;;
3491;SDS011;1760;52.480;13.422;2022-07-23T06:55:18;6.90;;;4.00;;
3491;SDS011;1760;52.480;13.422;2022-07-23T06:57:45;7.20;;;5.30;;
3491;SDS011;1760;52.480;13.422;2022-07-23T07:00:12;6.77;;;4.93;;
3491;SDS011;1760;52.480;13.422;2022-07-23T07:02:39;6.50;;;4.90;;
3491;SDS011;1760;52.480;13.422;2022-07-23T07:05:07;9.53;;;4.53;;
3491;SDS011;1760;52.480;13.422;2022-07-23T07:07:34;6.77;;;4.87;;
3491;SDS011;1760;52.480;13.422;2022-07-23T07:10:01;9.80;;;4.27;;
3491;SDS011;1760;52.480;13.422;2022-07-23T07:12:29;8.43;;;4.93;;
3491;SDS011;1760;52.480;13.422;2022-07-23T07:14:55;5.30;;;4.57;;
3491;SDS011;1760;52.480;13.422;2022-07-23T07:17:22;8.47;;;3.93;;
3491;SDS011;1760;52.480;13.422;2022-07-23T07:19:52;6.60;;;4.43;;
3491;SDS011;1760;52.480;13.422;2022-07-23T07:22:20;5.00;;;4.50;;
3491;SDS011;1760;52.480;13.422;2022-07-23T07:24:47;9.47;;;5.77;;
3491;SDS011;1760;52.480;13.422;2022-07-23T07:27:14;9.60;;;7.03;;
3491;SDS011;1760;52.480;13.422;2022-07-23T07:29:40;8.50;;;6.50;;
3491;SDS011;1760;52.480;13.422;2022-07-23T07:32:09;11.67;;;7.20;;
3491;SDS011;1760;52.480;13.422;2022-07-23T07:34:36;9.47;;;6.53;;
3491;SDS011;1760;52.480;13.422;2022-07-23T07:37:03;18.67;;;7.47;;
3491;SDS011;1760;52.480;13.422;2022-07-23T07:39:31;8.10;;;6.90;;
3491;SDS011;1760;52.480;13.422;2022-07-23T07:41:58;13.40;;;6.93;;
3491;SDS011;1760;52.480;13.422;2022-07-23T07:44:25;10.87;;;7.00;;
3491;SDS011;1760;52.480;13.422;2022-07-23T07:46:52;6.97;;;5.70;;
3491;SDS011;1760;52.480;13.422;2022-07-23T07:49:19;9.07;;;5.67;;
3491;SDS011;1760;52.480;13.422;2022-07-23T07:51:46;9.37;;;7.03;;
3491;SDS011;1760;52.480;13.422;2022-07-23T07:54:14;14.00;;;7.70;;
3491;SDS011;1760;52.480;13.422;2022-07-23T07:56:43;9.17;;;7.00;;
3491;SDS011;1760;52.480;13.422;2022-07-23T07:59:10;7.60;;;6.90;;
3491;SDS011;1760;52.480;13.422;2022-07-23T08:01:37;7.63;;;6.03;;
3491;SDS011;1760;52.480;13.422;2022-07-23T08:04:04;8.70;;;6.73;;
3491;SDS011;1760;52.480;13.422;2022-07-23T08:06:30;11.47;;;6.07;;
3491;SDS011;1760;52.480;13.422;2022-07-23T08:08:57;5.83;;;4.87;;
3491;SDS011;1760;52.480;13.422;2022-07-23T08:11:24;10.43;;;6.77;;
3491;SDS011;1760;52.480;13.422;2022-07-23T08:13:52;10.07;;;6.80;;
3491;SDS011;1760;52.480;13.422;2022-07-23T08:16:19;5.93;;;5.30;;
3491;SDS011;1760;52.480;13.422;2022-07-23T08:18:46;14.20;;;6.47;;
3491;SDS011;1760;52.480;13.422;2022-07-23T08:21:13;7.60;;;6.87;;
3491;SDS011;1760;52.480;13.422;2022-07-23T08:23:39;6.27;;;5.60;;
3491;SDS011;1760;52.480;13.422;2022-07-23T08:26:09;5.50;;;4.90;;
3491;SDS011;1760;52.480;13.422;2022-07-23T08:28:36;6.13;;;5.10;;
3491;SDS011;1760;52.480;13.422;2022-07-23T08:31:06;7.67;;;4.97;;
3491;SDS011;1760;52.480;13.422;2022-07-23T08:33:33;5.90;;;4.33;;
3491;SDS011;1760;52.480;13.422;2022-07-23T08:36:02;7.40;;;4.10;;
3491;SDS011;1760;52.480;13.422;2022-07-23T08:38:31;5.00;;;3.77;;
3491;SDS011;1760;52.480;13.422;2022-07-23T08:40:58;8.73;;;5.17;;
3491;SDS011;1760;52.480;13.422;2022-07-23T08:43:26;7.57;;;4.37;;
3491;SDS011;1760;52.480;13.422;2022-07-23T08:45:54;10.07;;;4.33;;
3491;SDS011;1760;52.480;13.422;2022-07-23T08:48:25;4.33;;;3.57;;
3491;SDS011;1760;52.480;13.422;2022-07-23T08:50:55;7.10;;;3.97;;
3491;SDS011;1760;52.480;13.422;2022-07-23T08:53:26;5.40;;;3.43;;
3491;SDS011;1760;52.480;13.422;2022-07-23T08:55:54;4.40;;;2.93;;
3491;SDS011;1760;52.480;13.422;2022-07-23T08:58:22;9.00;;;3.97;;
3491;SDS011;1760;52.480;13.422;2022-07-23T09:00:50;8.37;;;4.00;;
3491;SDS011;1760;52.480;13.422;2022-07-23T09:03:17;5.30;;;3.13;;
3491;SDS011;1760;52.480;13.422;2022-07-23T09:05:48;4.87;;;3.27;;
3491;SDS011;1760;52.480;13.422;2022-07-23T09:08:17;3.70;;;3.40;;
3491;SDS011;1760;52.480;13.422;2022-07-23T09:10:48;4.30;;;3.10;;
3491;SDS011;1760;52.480;13.422;2022-07-23T09:13:29;6.50;;;3.67;;
3491;SDS011;1760;52.480;13.422;2022-07-23T09:15:58;3.70;;;3.30;;
3491;SDS011;1760;52.480;13.422;2022-07-23T09:18:30;4.43;;;3.27;;
3491;SDS011;1760;52.480;13.422;2022-07-23T09:23:51;6.90;;;3.10;;
3491;SDS011;1760;52.480;13.422;2022-07-23T09:26:20;4.17;;;3.07;;
3491;SDS011;1760;52.480;13.422;2022-07-23T09:28:56;5.97;;;3.60;;
3491;SDS011;1760;52.480;13.422;2022-07-23T09:31:27;5.67;;;3.43;;
3491;SDS011;1760;52.480;13.422;2022-07-23T09:34:06;3.80;;;2.97;;
3491;SDS011;1760;52.480;13.422;2022-07-23T09:36:35;4.47;;;3.40;;
3491;SDS011;1760;52.480;13.422;2022-07-23T09:39:02;7.00;;;3.37;;
3491;SDS011;1760;52.480;13.422;2022-07-23T09:41:33;5.47;;;3.90;;
3491;SDS011;1760;52.480;13.422;2022-07-23T09:44:06;7.30;;;3.63;;
3491;SDS011;1760;52.480;13.422;2022-07-23T09:46:40;6.50;;;3.83;;
3491;SDS011;1760;52.480;13.422;2022-07-23T09:49:12;7.13;;;3.90;;
3491;SDS011;1760;52.480;13.422;2022-07-23T09:51:49;7.10;;;4.07;;
3491;SDS011;1760;52.480;13.422;2022-07-23T09:54:26;4.77;;;3.43;;
3491;SDS011;1760;52.480;13.422;2022-07-23T09:56:56;5.53;;;3.73;;
3491;SDS011;1760;52.480;13.422;2022-07-23T09:59:25;5.00;;;3.53;;
3491;SDS011;1760;52.480;13.422;2022-07-23T10:01:53;4.77;;;3.60;;
3491;SDS011;1760;52.480;13.422;2022-07-23T10:04:22;10.50;;;3.80;;
3491;SDS011;1760;52.480;13.422;2022-07-23T10:06:52;7.37;;;3.73;;
3491;SDS011;1760;52.480;13.422;2022-07-23T10:09:22;4.53;;;3.57;;
3491;SDS011;1760;52.480;13.422;2022-07-23T10:11:52;6.90;;;3.90;;
3491;SDS011;1760;52.480;13.422;2022-07-23T10:14:34;5.40;;;3.97;;
3491;SDS011;1760;52.480;13.422;2022-07-23T10:17:01;5.20;;;3.87;;
3491;SDS011;1760;52.480;13.422;2022-07-23T10:19:29;5.63;;;4.00;;
3491;SDS011;1760;52.480;13.422;2022-07-23T10:21:58;5.73;;;3.73;;
3491;SDS011;1760;52.480;13.422;2022-07-23T10:24:30;7.87;;;3.60;;
3491;SDS011;1760;52.480;13.422;2022-07-23T10:27:15;6.10;;;3.60;;
3491;SDS011;1760;52.480;13.422;2022-07-23T10:30:00;4.80;;;4.07;;
3491;SDS011;1760;52.480;13.422;2022-07-23T10:32:35;4.07;;;3.73;;
3491;SDS011;1760;52.480;13.422;2022-07-23T10:35:13;5.20;;;2.93;;
3491;SDS011;1760;52.480;13.422;2022-07-23T10:37:53;4.17;;;3.70;;
3491;SDS011;1760;52.480;13.422;2022-07-23T10:40:23;4.00;;;3.50;;
3491;SDS011;1760;52.480;13.422;2022-07-23T10:42:51;7.50;;;3.67;;
3491;SDS011;1760;52.480;13.422;2022-07-23T10:45:25;10.03;;;5.10;;
3491;SDS011;1760;52.480;13.422;2022-07-23T10:47:54;8.20;;;3.87;;
3491;SDS011;1760;52.480;13.422;2022-07-23T10:50:22;6.43;;;3.90;;
3491;SDS011;1760;52.480;13.422;2022-07-23T10:55:45;3.70;;;3.30;;
3491;SDS011;1760;52.480;13.422;2022-07-23T10:58:17;4.27;;;3.87;;
3491;SDS011;1760;52.480;13.422;2022-07-23T11:00:45;5.17;;;3.60;;
3491;SDS011;1760;52.480;13.422;2022-07-23T11:03:29;11.17;;;3.53;;
3491;SDS011;1760;52.480;13.422;2022-07-23T11:06:03;3.47;;;2.80;;
3491;SDS011;1760;52.480;13.422;2022-07-23T11:08:32;5.00;;;3.00;;
3491;SDS011;1760;52.480;13.422;2022-07-23T11:11:09;7.20;;;4.07;;
3491;SDS011;1760;52.480;13.422;2022-07-23T11:13:42;4.43;;;3.70;;
3491;SDS011;1760;52.480;13.422;2022-07-23T11:16:13;3.70;;;3.40;;
3491;SDS011;1760;52.480;13.422;2022-07-23T11:18:58;3.50;;;3.20;;
3491;SDS011;1760;52.480;13.422;2022-07-23T11:24:25;6.70;;;3.50;;
3491;SDS011;1760;52.480;13.422;2022-07-23T11:27:02;4.67;;;3.23;;
3491;SDS011;1760;52.480;13.422;2022-07-23T11:29:45;4.07;;;3.67;;
3491;SDS011;1760;52.480;13.422;2022-07-23T11:32:23;7.80;;;4.20;;
3491;SDS011;1760;52.480;13.422;2022-07-23T11:34:53;4.20;;;3.80;;
3491;SDS011;1760;52.480;13.422;2022-07-23T11:37:28;4.90;;;4.10;;
3491;SDS011;1760;52.480;13.422;2022-07-23T11:40:00;4.60;;;3.60;;
3491;SDS011;1760;52.480;13.422;2022-07-23T11:42:29;4.63;;;4.07;;
3491;SDS011;1760;52.480;13.422;2022-07-23T11:44:56;5.27;;;3.00;;
3491;SDS011;1760;52.480;13.422;2022-07-23T11:47:24;5.53;;;3.37;;
3491;SDS011;1760;52.480;13.422;2022-07-23T11:49:52;7.70;;;3.60;;
3491;SDS011;1760;52.480;13.422;2022-07-23T11:52:21;6.33;;;3.50;;
3491;SDS011;1760;52.480;13.422;2022-07-23T11:54:48;4.10;;;3.80;;
3491;SDS011;1760;52.480;13.422;2022-07-23T11:57:19;6.73;;;3.47;;
3491;SDS011;1760;52.480;13.422;2022-07-23T11:59:47;5.77;;;4.17;;
3491;SDS011;1760;52.480;13.422;2022-07-23T12:02:19;5.37;;;3.40;;
3491;SDS011;1760;52.480;13.422;2022-07-23T12:04:47;3.90;;;3.50;;
3491;SDS011;1760;52.480;13.422;2022-07-23T12:07:22;3.70;;;3.37;;
3491;SDS011;1760;52.480;13.422;2022-07-23T12:10:00;5.20;;;4.07;;
3491;SDS011;1760;52.480;13.422;2022-07-23T12:12:36;7.10;;;3.90;;
3491;SDS011;1760;52.480;13.422;2022-07-23T12:15:04;4.50;;;3.40;;
3491;SDS011;1760;52.480;13.422;2022-07-23T12:17:33;11.33;;;3.80;;
3491;SDS011;1760;52.480;13.422;2022-07-23T12:20:01;7.90;;;3.80;;
3491;SDS011;1760;52.480;13.422;2022-07-23T12:22:33;9.00;;;4.60;;
3491;SDS011;1760;52.480;13.422;2022-07-23T12:25:03;5.17;;;4.10;;
3491;SDS011;1760;52.480;13.422;2022-07-23T12:27:32;4.20;;;3.30;;
3491;SDS011;1760;52.480;13.422;2022-07-23T12:33:12;6.37;;;3.90;;
3491;SDS011;1760;52.480;13.422;2022-07-23T12:35:42;3.77;;;3.10;;
3491;SDS011;1760;52.480;13.422;2022-07-23T12:38:17;4.70;;;3.80;;
3491;SDS011;1760;52.480;13.422;2022-07-23T12:40:50;5.40;;;4.30;;
3491;SDS011;1760;52.480;13.422;2022-07-23T12:43:25;4.20;;;3.77;;
3491;SDS011;1760;52.480;13.422;2022-07-23T12:45:53;4.37;;;4.00;;
3491;SDS011;1760;52.480;13.422;2022-07-23T12:48:29;4.37;;;3.50;;
3491;SDS011;1760;52.480;13.422;2022-07-23T12:50:59;4.63;;;4.03;;
3491;SDS011;1760;52.480;13.422;2022-07-23T12:53:28;4.43;;;3.97;;
3491;SDS011;1760;52.480;13.422;2022-07-23T12:55:58;6.13;;;3.50;;
3491;SDS011;1760;52.480;13.422;2022-07-23T12:58:26;3.90;;;3.53;;
3491;SDS011;1760;52.480;13.422;2022-07-23T13:01:05;4.00;;;3.60;;
3491;SDS011;1760;52.480;13.422;2022-07-23T13:03:34;6.13;;;3.90;;
3491;SDS011;1760;52.480;13.422;2022-07-23T13:06:03;4.50;;;4.10;;
3491;SDS011;1760;52.480;13.422;2022-07-23T13:08:33;6.43;;;4.33;;
3491;SDS011;1760;52.480;13.422;2022-07-23T13:11:01;6.20;;;4.67;;
3491;SDS011;1760;52.480;13.422;2022-07-23T13:13:30;3.77;;;3.47;;
3491;SDS011;1760;52.480;13.422;2022-07-23T13:15:58;5.40;;;3.80;;
3491;SDS011;1760;52.480;13.422;2022-07-23T13:18:26;3.90;;;3.43;;
3491;SDS011;1760;52.480;13.422;2022-07-23T13:20:55;5.87;;;4.30;;
3491;SDS011;1760;52.480;13.422;2022-07-23T13:23:22;3.70;;;3.40;;
3491;SDS011;1760;52.480;13.422;2022-07-23T13:25:49;4.77;;;3.77;;
3491;SDS011;1760;52.480;13.422;2022-07-23T13:28:17;4.80;;;3.70;;
3491;SDS011;1760;52.480;13.422;2022-07-23T13:30:44;4.50;;;4.10;;
3491;SDS011;1760;52.480;13.422;2022-07-23T13:33:14;6.70;;;4.13;;
3491;SDS011;1760;52.480;13.422;2022-07-23T13:35:42;5.20;;;3.73;;
3491;SDS011;1760;52.480;13.422;2022-07-23T13:38:10;6.47;;;4.47;;
3491;SDS011;1760;52.480;13.422;2022-07-23T13:40:37;4.93;;;3.60;;
3491;SDS011;1760;52.480;13.422;2022-07-23T13:43:05;4.43;;;3.87;;
3491;SDS011;1760;52.480;13.422;2022-07-23T13:45:33;3.93;;;3.53;;
3491;SDS011;1760;52.480;13.422;2022-07-23T13:48:00;4.83;;;3.50;;
3491;SDS011;1760;52.480;13.422;2022-07-23T13:50:27;3.83;;;3.47;;
3491;SDS011;1760;52.480;13.422;2022-07-23T13:52:54;4.27;;;3.60;;
3491;SDS011;1760;52.480;13.422;2022-07-23T13:55:22;5.87;;;4.43;;
3491;SDS011;1760;52.480;13.422;2022-07-23T13:57:49;4.57;;;4.13;;
3491;SDS011;1760;52.480;13.422;2022-07-23T14:00:16;5.57;;;4.27;;
3491;SDS011;1760;52.480;13.422;2022-07-23T14:02:43;5.20;;;4.20;;
3491;SDS011;1760;52.480;13.422;2022-07-23T14:05:11;4.10;;;3.40;;
3491;SDS011;1760;52.480;13.422;2022-07-23T14:07:38;4.33;;;3.93;;
3491;SDS011;1760;52.480;13.422;2022-07-23T14:10:08;3.93;;;3.53;;
3491;SDS011;1760;52.480;13.422;2022-07-23T14:12:36;4.90;;;4.50;;
3491;SDS011;1760;52.480;13.422;2022-07-23T14:15:04;8.83;;;4.43;;
3491;SDS011;1760;52.480;13.422;2022-07-23T14:17:33;8.00;;;5.00;;
3491;SDS011;1760;52.480;13.422;2022-07-23T14:20:00;3.77;;;3.40;;
3491;SDS011;1760;52.480;13.422;2022-07-23T14:22:27;6.30;;;4.43;;
3491;SDS011;1760;52.480;13.422;2022-07-23T14:24:54;3.93;;;3.43;;
3491;SDS011;1760;52.480;13.422;2022-07-23T14:27:22;6.03;;;3.03;;
3491;SDS011;1760;52.480;13.422;2022-07-23T14:29:51;6.87;;;3.53;;
3491;SDS011;1760;52.480;13.422;2022-07-23T14:32:18;3.33;;;3.03;;
3491;SDS011;1760;52.480;13.422;2022-07-23T14:34:46;3.70;;;2.90;;
3491;SDS011;1760;52.480;13.422;2022-07-23T14:37:13;4.27;;;3.67;;
3491;SDS011;1760;52.480;13.422;2022-07-23T14:39:41;4.33;;;3.63;;
3491;SDS011;1760;52.480;13.422;2022-07-23T14:42:09;4.07;;;3.70;;
3491;SDS011;1760;52.480;13.422;2022-07-23T14:44:37;6.93;;;3.40;;
3491;SDS011;1760;52.480;13.422;2022-07-23T14:47:06;3.60;;;3.10;;
3491;SDS011;1760;52.480;13.422;2022-07-23T14:49:33;5.33;;;3.63;;
3491;SDS011;1760;52.480;13.422;2022-07-23T14:51:59;3.40;;;3.10;;
3491;SDS011;1760;52.480;13.422;2022-07-23T14:54:29;3.90;;;2.73;;
3491;SDS011;1760;52.480;13.422;2022-07-23T14:56:56;2.50;;;2.30;;
3491;SDS011;1760;52.480;13.422;2022-07-23T14:59:24;4.83;;;3.47;;
3491;SDS011;1760;52.480;13.422;2022-07-23T15:01:51;3.40;;;2.67;;
3491;SDS011;1760;52.480;13.422;2022-07-23T15:04:23;3.10;;;2.40;;
3491;SDS011;1760;52.480;13.422;2022-07-23T15:06:50;2.63;;;2.33;;
3491;SDS011;1760;52.480;13.422;2022-07-23T15:09:17;2.97;;;2.50;;
3491;SDS011;1760;52.480;13.422;2022-07-23T15:11:44;6.50;;;3.00;;
3491;SDS011;1760;52.480;13.422;2022-07-23T15:14:11;2.30;;;2.10;;
3491;SDS011;1760;52.480;13.422;2022-07-23T15:16:39;2.83;;;2.53;;
3491;SDS011;1760;52.480;13.422;2022-07-23T15:19:06;5.67;;;2.80;;
3491;SDS011;1760;52.480;13.422;2022-07-23T15:21:34;7.30;;;3.20;;
3491;SDS011;1760;52.480;13.422;2022-07-23T15:24:01;4.13;;;3.03;;